Time;durP1;ratioP1;P1;durP2;ratioP2;P2;SDS_P1;SDS_P2;PMS_P1;PMS_P2;Temp;Humidity;BMP_temperature;BMP_pressure;BME280_temperature;BME280_humidity;BME280_pressure;Samples;Min_cycle;Max_cycle;Signal;HPM_P1;HPM_P2
2019/08/01 00:01:44;;;;;;;6.7;4;;;;;;;;;;;;;
2019/08/01 00:04:09;;;;;;;7.8;4.3;;;;;;;;;;;;;
2019/08/01 00:06:34;;;;;;;6.1;4;;;;;;;;;;;;;
2019/08/01 00:08:59;;;;;;;6.9;3.9;;;;;;;;;;;;;
2019/08/01 00:11:24;;;;;;;6.7;4.4;;;;;;;;;;;;;
2019/08/01 00:13:50;;;;;;;6.8;4;;;;;;;;;;;;;
2019/08/01 00:16:15;;;;;;;6.1;3.7;;;;;;;;;;;;;
2019/08/01 00:18:40;;;;;;;6.5;3.9;;;;;;;;;;;;;
2019/08/01 00:21:05;;;;;;;5.5;3.9;;;;;;;;;;;;;
2019/08/01 00:23:30;;;;;;;8.8;3.9;;;;;;;;;;;;;
2019/08/01 00:25:55;;;;;;;5.2;3.8;;;;;;;;;;;;;
2019/08/01 00:28:20;;;;;;;6.2;3.7;;;;;;;;;;;;;
2019/08/01 00:30:46;;;;;;;9.1;3.8;;;;;;;;;;;;;
2019/08/01 00:33:11;;;;;;;5.4;3.8;;;;;;;;;;;;;
2019/08/01 00:35:36;;;;;;;7.6;3.7;;;;;;;;;;;;;
2019/08/01 00:38:01;;;;;;;6.4;3.9;;;;;;;;;;;;;
2019/08/01 00:40:26;;;;;;;8.8;4.1;;;;;;;;;;;;;
2019/08/01 00:42:51;;;;;;;7.6;4;;;;;;;;;;;;;
2019/08/01 00:45:16;;;;;;;6.9;4.2;;;;;;;;;;;;;
2019/08/01 00:47:41;;;;;;;6.7;4;;;;;;;;;;;;;
2019/08/01 00:50:06;;;;;;;6.9;4.3;;;;;;;;;;;;;
2019/08/01 00:52:31;;;;;;;7.9;4.7;;;;;;;;;;;;;
2019/08/01 00:54:56;;;;;;;8.8;4.6;;;;;;;;;;;;;
2019/08/01 00:57:22;;;;;;;7.7;4.4;;;;;;;;;;;;;
2019/08/01 00:59:47;;;;;;;7;4.6;;;;;;;;;;;;;
2019/08/01 01:02:12;;;;;;;7.1;4.5;;;;;;;;;;;;;
2019/08/01 01:04:37;;;;;;;9.1;4.3;;;;;;;;;;;;;
2019/08/01 01:07:02;;;;;;;7.7;4.7;;;;;;;;;;;;;
2019/08/01 01:09:27;;;;;;;6.6;4.6;;;;;;;;;;;;;
2019/08/01 01:11:52;;;;;;;5;4;;;;;;;;;;;;;
2019/08/01 01:14:17;;;;;;;7.7;4.4;;;;;;;;;;;;;
2019/08/01 01:16:42;;;;;;;6.9;5;;;;;;;;;;;;;
2019/08/01 01:19:07;;;;;;;7.8;4.9;;;;;;;;;;;;;
2019/08/01 01:21:32;;;;;;;9.7;5.4;;;;;;;;;;;;;
2019/08/01 01:23:57;;;;;;;6.4;4.6;;;;;;;;;;;;;
2019/08/01 01:26:23;;;;;;;8.3;4.8;;;;;;;;;;;;;
2019/08/01 01:28:48;;;;;;;6.8;4.8;;;;;;;;;;;;;
2019/08/01 01:31:13;;;;;;;6.8;4.5;;;;;;;;;;;;;
2019/08/01 01:33:38;;;;;;;8.9;5.2;;;;;;;;;;;;;
2019/08/01 01:36:03;;;;;;;7.4;4.5;;;;;;;;;;;;;
2019/08/01 01:38:28;;;;;;;6.8;4.7;;;;;;;;;;;;;
2019/08/01 01:40:53;;;;;;;9.5;5.4;;;;;;;;;;;;;
2019/08/01 01:43:18;;;;;;;7.3;5.3;;;;;;;;;;;;;
2019/08/01 01:45:43;;;;;;;8.1;5.6;;;;;;;;;;;;;
2019/08/01 01:48:08;;;;;;;9.1;6;;;;;;;;;;;;;
2019/08/01 01:50:34;;;;;;;10.7;5.9;;;;;;;;;;;;;
2019/08/01 01:52:59;;;;;;;9.9;5.8;;;;;;;;;;;;;
2019/08/01 01:55:24;;;;;;;8;5.7;;;;;;;;;;;;;
2019/08/01 01:57:49;;;;;;;8.8;5.4;;;;;;;;;;;;;
2019/08/01 02:00:14;;;;;;;8.7;5.7;;;;;;;;;;;;;
2019/08/01 02:02:39;;;;;;;8.5;4.9;;;;;;;;;;;;;
2019/08/01 02:05:04;;;;;;;8.3;5.5;;;;;;;;;;;;;
2019/08/01 02:07:30;;;;;;;6.9;5.4;;;;;;;;;;;;;
2019/08/01 02:09:55;;;;;;;8;5.3;;;;;;;;;;;;;
2019/08/01 02:12:20;;;;;;;8.6;5.5;;;;;;;;;;;;;
2019/08/01 02:14:45;;;;;;;7.5;5.4;;;;;;;;;;;;;
2019/08/01 02:17:10;;;;;;;9.4;5.5;;;;;;;;;;;;;
2019/08/01 02:19:35;;;;;;;9.1;5.7;;;;;;;;;;;;;
2019/08/01 02:22:00;;;;;;;7.8;5.8;;;;;;;;;;;;;
2019/08/01 02:24:25;;;;;;;8.4;5.5;;;;;;;;;;;;;
2019/08/01 02:26:50;;;;;;;8.4;5.4;;;;;;;;;;;;;
2019/08/01 02:29:16;;;;;;;7.8;5.2;;;;;;;;;;;;;
2019/08/01 02:31:41;;;;;;;9.1;5.7;;;;;;;;;;;;;
2019/08/01 02:34:06;;;;;;;8.7;5.9;;;;;;;;;;;;;
2019/08/01 02:36:31;;;;;;;6.6;5.5;;;;;;;;;;;;;
2019/08/01 02:38:56;;;;;;;9.7;6.6;;;;;;;;;;;;;
2019/08/01 02:41:21;;;;;;;8.8;5.9;;;;;;;;;;;;;
2019/08/01 02:43:46;;;;;;;10.1;6;;;;;;;;;;;;;
2019/08/01 02:46:11;;;;;;;7.1;5.3;;;;;;;;;;;;;
2019/08/01 02:48:36;;;;;;;9.4;6.4;;;;;;;;;;;;;
2019/08/01 02:51:01;;;;;;;11.5;6.4;;;;;;;;;;;;;
2019/08/01 02:53:26;;;;;;;9.9;6.2;;;;;;;;;;;;;
2019/08/01 02:55:52;;;;;;;10.4;6.1;;;;;;;;;;;;;
2019/08/01 02:58:17;;;;;;;8.6;5.7;;;;;;;;;;;;;
2019/08/01 03:00:42;;;;;;;9.6;6.2;;;;;;;;;;;;;
2019/08/01 03:03:07;;;;;;;8.1;6.3;;;;;;;;;;;;;
2019/08/01 03:05:32;;;;;;;10;6.6;;;;;;;;;;;;;
2019/08/01 03:07:57;;;;;;;9.1;6.2;;;;;;;;;;;;;
2019/08/01 03:10:22;;;;;;;8.4;6.3;;;;;;;;;;;;;
2019/08/01 03:12:47;;;;;;;9.8;6.2;;;;;;;;;;;;;
2019/08/01 03:15:12;;;;;;;8.8;6.1;;;;;;;;;;;;;
2019/08/01 03:17:37;;;;;;;9.2;5.7;;;;;;;;;;;;;
2019/08/01 03:20:02;;;;;;;8.4;5.6;;;;;;;;;;;;;
2019/08/01 03:22:28;;;;;;;7.4;5.7;;;;;;;;;;;;;
2019/08/01 03:24:53;;;;;;;7.8;5.7;;;;;;;;;;;;;
2019/08/01 03:27:18;;;;;;;7.2;5.9;;;;;;;;;;;;;
2019/08/01 03:29:43;;;;;;;7.5;5.6;;;;;;;;;;;;;
2019/08/01 03:32:09;;;;;;;9.6;6.1;;;;;;;;;;;;;
2019/08/01 03:34:34;;;;;;;8.5;6.4;;;;;;;;;;;;;
2019/08/01 03:36:59;;;;;;;9.3;7;;;;;;;;;;;;;
2019/08/01 03:39:24;;;;;;;9;6.4;;;;;;;;;;;;;
2019/08/01 03:41:49;;;;;;;11.7;6.1;;;;;;;;;;;;;
2019/08/01 03:44:14;;;;;;;8.7;5.5;;;;;;;;;;;;;
2019/08/01 03:46:39;;;;;;;7.7;5.4;;;;;;;;;;;;;
2019/08/01 03:49:04;;;;;;;7.3;5.7;;;;;;;;;;;;;
2019/08/01 03:51:29;;;;;;;8.5;5.6;;;;;;;;;;;;;
2019/08/01 03:53:54;;;;;;;8.9;5.5;;;;;;;;;;;;;
2019/08/01 03:56:20;;;;;;;6.1;5.5;;;;;;;;;;;;;
2019/08/01 03:58:55;;;;;;;8.5;5.3;;;;;;;;;;;;;
2019/08/01 04:02:28;;;;;;;7;4.9;;;;;;;16.44;91.99414;962.8019;;;;
2019/08/01 04:04:53;;;;;;;8.1;5.7;;;;;;;16.3;92.81348;962.8436;;;;
2019/08/01 04:07:18;;;;;;;7.8;5.6;;;;;;;16.19;93.39746;962.8394;;;;
2019/08/01 04:09:43;;;;;;;11.1;7.9;;;;;;;16.09;95.04297;962.8619;;;;
2019/08/01 04:12:08;;;;;;;9.9;8.1;;;;;;;16.05;94.38477;962.8488;;;;
2019/08/01 04:14:33;;;;;;;10.1;7.2;;;;;;;16.14;93.46875;962.9058;;;;
2019/08/01 04:16:58;;;;;;;12;7.1;;;;;;;15.99;94.27539;962.9127;;;;
2019/08/01 04:19:23;;;;;;;11.1;7.2;;;;;;;16;94.30273;962.9109;;;;
2019/08/01 04:21:48;;;;;;;12.1;7;;;;;;;16.1;93.32129;962.8917;;;;
2019/08/01 04:24:13;;;;;;;10.3;6.8;;;;;;;16.02;94.45605;962.8733;;;;
2019/08/01 04:26:38;;;;;;;10.4;6.2;;;;;;;16.06;93.8252;962.8627;;;;
2019/08/01 04:29:03;;;;;;;8.5;6.1;;;;;;;16.06;93.56836;962.8405;;;;
2019/08/01 04:31:29;;;;;;;7.9;6.3;;;;;;;16.2;92.69922;962.8953;;;;
2019/08/01 04:33:54;;;;;;;9.3;7;;;;;;;16.16;93.14648;962.8795;;;;
2019/08/01 04:36:19;;;;;;;9.1;6.9;;;;;;;16.14;92.96777;962.9165;;;;
2019/08/01 04:38:44;;;;;;;10.9;7.6;;;;;;;16.11;94.24414;962.9739;;;;
2019/08/01 04:41:09;;;;;;;7.8;6.8;;;;;;;16.15;93.61133;962.978;;;;
2019/08/01 04:43:34;;;;;;;9.3;7.3;;;;;;;16.13;94.52637;962.9626;;;;
2019/08/01 04:45:59;;;;;;;9.1;8;;;;;;;16.09;94.56738;962.9428;;;;
2019/08/01 04:48:24;;;;;;;10.4;7.8;;;;;;;16.2;94.91504;962.9338;;;;
2019/08/01 04:50:49;;;;;;;8.4;7.3;;;;;;;16.35;94.17773;962.9728;;;;
2019/08/01 04:53:14;;;;;;;9.4;7.5;;;;;;;16.39;93.63965;962.9498;;;;
2019/08/01 04:55:39;;;;;;;9.3;7.3;;;;;;;16.48;92.93359;962.954;;;;
2019/08/01 04:58:04;;;;;;;9.1;7.5;;;;;;;16.5;93.06738;962.9756;;;;
2019/08/01 05:00:29;;;;;;;8.8;7.6;;;;;;;16.4;92.89453;963.0627;;;;
2019/08/01 05:02:54;;;;;;;10.1;8.1;;;;;;;16.34;93.89844;963.0469;;;;
2019/08/01 05:05:19;;;;;;;11.1;8.5;;;;;;;16.31;94.20508;963.0469;;;;
2019/08/01 05:07:44;;;;;;;12.3;8.6;;;;;;;16.32;93.64746;963.0057;;;;
2019/08/01 05:10:10;;;;;;;10.5;8.1;;;;;;;16.54;92.64355;963.0125;;;;
2019/08/01 05:12:35;;;;;;;13.1;9.8;;;;;;;16.48;92.91211;962.9836;;;;
2019/08/01 05:15:00;;;;;;;10.5;7.5;;;;;;;16.59;92.03613;962.9295;;;;
2019/08/01 05:17:25;;;;;;;9.4;8.1;;;;;;;16.55;92.69336;962.9716;;;;
2019/08/01 05:19:50;;;;;;;10.6;8.4;;;;;;;16.48;92.62988;963.0256;;;;
2019/08/01 05:22:16;;;;;;;13.4;8.2;;;;;;;16.49;93.52051;963.0184;;;;
2019/08/01 05:24:41;;;;;;;10;7.7;;;;;;;16.49;92.57324;963.035;;;;
2019/08/01 05:27:06;;;;;;;12.6;8.5;;;;;;;16.55;92.92676;963.0144;;;;
2019/08/01 05:29:31;;;;;;;12.1;8;;;;;;;16.72;91.52539;962.9699;;;;
2019/08/01 05:31:56;;;;;;;11.5;7.4;;;;;;;16.76;91.20801;962.9581;;;;
2019/08/01 05:34:22;;;;;;;11;7.9;;;;;;;16.82;90.35547;962.9804;;;;
2019/08/01 05:36:47;;;;;;;11.6;7.5;;;;;;;16.71;91.4668;963.0136;;;;
2019/08/01 05:39:12;;;;;;;12.8;7.7;;;;;;;16.72;91.7373;963.032;;;;
2019/08/01 05:41:37;;;;;;;11.1;7.3;;;;;;;16.79;92.07715;963.0067;;;;
2019/08/01 05:44:02;;;;;;;8.4;7.1;;;;;;;16.85;91.42676;962.9564;;;;
2019/08/01 05:46:28;;;;;;;9.8;6.9;;;;;;;16.98;90.82227;962.9439;;;;
2019/08/01 05:48:53;;;;;;;9.5;7.2;;;;;;;16.99;91.74707;962.9431;;;;
2019/08/01 05:51:18;;;;;;;10.4;8.7;;;;;;;16.92;90.97266;962.9078;;;;
2019/08/01 05:53:43;;;;;;;12.3;7.9;;;;;;;17.11;89.8457;962.9647;;;;
2019/08/01 05:56:08;;;;;;;9.3;7.1;;;;;;;17.25;89.51074;963.0203;;;;
2019/08/01 05:58:33;;;;;;;10.8;7.3;;;;;;;17.39;89.53809;963.0449;;;;
2019/08/01 06:00:59;;;;;;;11.6;7.7;;;;;;;17.37;88.86816;962.9954;;;;
2019/08/01 06:03:24;;;;;;;10.3;7.7;;;;;;;17.6;87.32227;962.9991;;;;
2019/08/01 06:05:49;;;;;;;11.7;7.1;;;;;;;17.56;87.52637;963.0172;;;;
2019/08/01 06:08:15;;;;;;;9.5;6.7;;;;;;;17.59;87.83691;963.0214;;;;
2019/08/01 06:10:40;;;;;;;10.3;6.7;;;;;;;17.62;88.13477;963.0294;;;;
2019/08/01 06:13:05;;;;;;;10.8;6.9;;;;;;;17.74;87.99609;963.0598;;;;
2019/08/01 06:15:30;;;;;;;9.8;6.5;;;;;;;17.91;87.01074;963.0781;;;;
2019/08/01 06:17:56;;;;;;;11.3;7.5;;;;;;;17.81;86.83887;963.0458;;;;
2019/08/01 06:20:21;;;;;;;10.1;7.9;;;;;;;17.93;85.94922;963.0692;;;;
2019/08/01 06:22:46;;;;;;;11.3;7.6;;;;;;;17.76;87.11035;963.0553;;;;
2019/08/01 06:25:16;;;;;;;11;7.1;;;;;;;17.75;87.75293;963.0522;;;;
2019/08/01 06:27:41;;;;;;;10;6.4;;;;;;;17.9;87.32422;963.052;;;;
2019/08/01 06:30:06;;;;;;;9.4;6.8;;;;;;;17.96;86.55273;963.008;;;;
2019/08/01 06:32:31;;;;;;;11.3;6.3;;;;;;;18.12;86.94727;963.0104;;;;
2019/08/01 06:34:56;;;;;;;9.1;6.2;;;;;;;18.18;86.13965;962.9994;;;;
2019/08/01 06:37:21;;;;;;;9.9;6.1;;;;;;;18.23;85.52832;962.9861;;;;
2019/08/01 06:39:46;;;;;;;9.2;6.2;;;;;;;18.31;84.44043;963.0234;;;;
2019/08/01 06:42:11;;;;;;;9.3;6.4;;;;;;;18.29;85.45801;962.9742;;;;
2019/08/01 06:44:37;;;;;;;6.1;5.2;;;;;;;18.43;85.14648;963.0147;;;;
2019/08/01 06:47:02;;;;;;;10;6.2;;;;;;;18.69;83.29688;962.9476;;;;
2019/08/01 06:49:27;;;;;;;7.1;5.5;;;;;;;18.78;83.66602;962.9547;;;;
2019/08/01 06:51:52;;;;;;;6.8;5;;;;;;;18.91;83.54883;962.9448;;;;
2019/08/01 06:54:17;;;;;;;5.7;5.1;;;;;;;19.12;81.59277;962.9406;;;;
2019/08/01 06:56:42;;;;;;;8.8;5.5;;;;;;;19.01;81.80762;962.9661;;;;
2019/08/01 06:59:07;;;;;;;6.9;4.7;;;;;;;18.97;81.92969;962.9361;;;;
2019/08/01 07:01:32;;;;;;;9;5.3;;;;;;;19.16;81.84766;962.9392;;;;
2019/08/01 07:03:57;;;;;;;5.5;4.2;;;;;;;19.2;81.08105;962.923;;;;
2019/08/01 07:06:22;;;;;;;8.5;3.9;;;;;;;19.3;77.09375;962.9001;;;;
2019/08/01 07:11:12;;;;;;;6.3;3.6;;;;;;;19.5;77.25879;962.8831;;;;
2019/08/01 07:13:38;;;;;;;5.9;3.6;;;;;;;19.55;77.5498;962.8543;;;;
2019/08/01 07:16:03;;;;;;;5.1;3.6;;;;;;;19.65;77.30859;962.8502;;;;
2019/08/01 07:18:28;;;;;;;5.5;3.1;;;;;;;19.66;72.10352;962.8145;;;;
2019/08/01 07:20:53;;;;;;;6.8;2.7;;;;;;;19.61;74.24805;962.8014;;;;
2019/08/01 07:23:18;;;;;;;5.8;3.3;;;;;;;19.64;72.10156;962.7814;;;;
2019/08/01 07:25:44;;;;;;;5.9;3.3;;;;;;;19.4;71.15625;962.76;;;;
2019/08/01 07:28:09;;;;;;;5.5;2.9;;;;;;;19.39;72.95313;962.7875;;;;
2019/08/01 07:30:34;;;;;;;7.6;3.1;;;;;;;19.49;73.78027;962.798;;;;
2019/08/01 07:32:59;;;;;;;6.5;3.1;;;;;;;19.63;69.7959;962.7823;;;;
2019/08/01 07:35:24;;;;;;;6.7;2.4;;;;;;;19.6;70.55566;962.7751;;;;
2019/08/01 07:37:50;;;;;;;5.3;2.5;;;;;;;19.74;70.91797;962.7275;;;;
2019/08/01 07:40:15;;;;;;;10.2;2.9;;;;;;;19.96;71.58984;962.8358;;;;
2019/08/01 07:42:40;;;;;;;8.3;2.9;;;;;;;19.78;70.30371;962.752;;;;
2019/08/01 07:45:05;;;;;;;5.3;2.6;;;;;;;20.08;67.02051;962.7839;;;;
2019/08/01 07:47:31;;;;;;;5;2.4;;;;;;;19.82;66.62793;962.7656;;;;
2019/08/01 07:49:56;;;;;;;5.1;2.5;;;;;;;19.75;66.14844;962.7548;;;;
2019/08/01 07:52:21;;;;;;;5.7;3.1;;;;;;;19.82;67.54492;962.7408;;;;
2019/08/01 07:54:47;;;;;;;6.6;2.7;;;;;;;19.96;67.47266;962.7441;;;;
2019/08/01 07:57:12;;;;;;;6.3;2.9;;;;;;;20.13;64.16992;962.6821;;;;
2019/08/01 07:59:37;;;;;;;7.1;2.7;;;;;;;20.01;65.57617;962.7275;;;;
2019/08/01 08:02:02;;;;;;;7.5;3.1;;;;;;;20.22;63.20605;962.6942;;;;
2019/08/01 08:04:27;;;;;;;6.4;2.5;;;;;;;20.34;63.37695;962.7357;;;;
2019/08/01 08:06:53;;;;;;;6.6;2.7;;;;;;;20.24;63.2207;962.7503;;;;
2019/08/01 08:09:18;;;;;;;6.1;2.4;;;;;;;20.24;61.19629;962.6866;;;;
2019/08/01 08:11:43;;;;;;;8;2.6;;;;;;;20.2;60.94434;962.7153;;;;
2019/08/01 08:14:08;;;;;;;6.5;2.4;;;;;;;20.07;62.57422;962.7508;;;;
2019/08/01 08:16:33;;;;;;;12.2;2.4;;;;;;;20.11;59.48535;962.7181;;;;
2019/08/01 08:18:59;;;;;;;5.8;2.1;;;;;;;20.12;63.01563;962.6998;;;;
2019/08/01 08:21:24;;;;;;;5;2.3;;;;;;;20.16;62.46875;962.6944;;;;
2019/08/01 08:23:49;;;;;;;7.2;2.1;;;;;;;20.42;60.26855;962.6806;;;;
2019/08/01 08:26:14;;;;;;;7.4;2.2;;;;;;;20.51;59.74023;962.6619;;;;
2019/08/01 08:28:39;;;;;;;6.5;2.1;;;;;;;20.46;61.21582;962.686;;;;
2019/08/01 08:31:04;;;;;;;4.5;2;;;;;;;20.25;62.43457;962.7078;;;;
2019/08/01 08:33:29;;;;;;;5.3;2;;;;;;;20.19;58.81348;962.745;;;;
2019/08/01 08:35:54;;;;;;;6.4;2;;;;;;;20.37;58.57813;962.8022;;;;
2019/08/01 08:38:19;;;;;;;3;1.7;;;;;;;20.51;56.52539;962.772;;;;
2019/08/01 08:40:44;;;;;;;6.6;2.2;;;;;;;20.68;58.72559;962.7725;;;;
2019/08/01 08:43:09;;;;;;;8.1;2.5;;;;;;;20.64;59.59277;962.8013;;;;
2019/08/01 08:45:34;;;;;;;6;2.3;;;;;;;20.72;58.33105;962.7287;;;;
2019/08/01 08:47:59;;;;;;;4.5;2.1;;;;;;;20.83;56.94238;962.7443;;;;
2019/08/01 08:50:24;;;;;;;6.3;2.2;;;;;;;20.85;57.02832;962.6992;;;;
2019/08/01 08:52:50;;;;;;;8.2;2.1;;;;;;;20.85;55.15527;962.6669;;;;
2019/08/01 08:55:15;;;;;;;6.4;2;;;;;;;20.86;55.99219;962.6163;;;;
2019/08/01 08:57:40;;;;;;;7.2;2.5;;;;;;;20.81;56.59863;962.6086;;;;
2019/08/01 09:00:14;;;;;;;6.8;2.5;;;;;;;20.52;56.35059;962.6373;;;;
2019/08/01 09:02:30;;;;;;;7;2.1;;;;;;;20.69;58.14941;962.6429;;;;
2019/08/01 09:04:57;;;;;;;6.1;2;;;;;;;20.95;58.23242;962.6511;;;;
2019/08/01 09:07:21;;;;;;;6;2.2;;;;;;;20.97;56.90234;962.6119;;;;
2019/08/01 09:09:46;;;;;;;6.3;2.3;;;;;;;20.91;56.72949;962.5854;;;;
2019/08/01 09:12:11;;;;;;;5.3;2.2;;;;;;;21.27;55.89063;962.572;;;;
2019/08/01 09:14:36;;;;;;;5.4;1.9;;;;;;;21.33;55.34375;962.5764;;;;
2019/08/01 09:17:01;;;;;;;7.5;2.5;;;;;;;21.21;56.29688;962.5912;;;;
2019/08/01 09:19:26;;;;;;;8.7;2.6;;;;;;;21.37;51.52734;962.5803;;;;
2019/08/01 09:21:51;;;;;;;8;2.7;;;;;;;21.53;50;962.6003;;;;
2019/08/01 09:24:16;;;;;;;8.6;2.2;;;;;;;21.6;53.36035;962.5711;;;;
2019/08/01 09:26:42;;;;;;;7;2.3;;;;;;;21.38;51.79883;962.625;;;;
2019/08/01 09:29:07;;;;;;;7.5;2.4;;;;;;;21.37;54.34668;962.5986;;;;
2019/08/01 09:31:32;;;;;;;7.7;2.6;;;;;;;21.4;54.31445;962.5549;;;;
2019/08/01 09:33:57;;;;;;;6.8;2.2;;;;;;;21.46;55.39648;962.5961;;;;
2019/08/01 09:36:22;;;;;;;10;3;;;;;;;21.31;55.49512;962.5878;;;;
2019/08/01 09:38:47;;;;;;;7.4;2.6;;;;;;;21.24;54.61426;962.5625;;;;
2019/08/01 09:41:12;;;;;;;7.1;2.9;;;;;;;21.52;55.72168;962.6116;;;;
2019/08/01 09:43:38;;;;;;;6.9;2.4;;;;;;;21.53;55.7002;962.5887;;;;
2019/08/01 09:46:03;;;;;;;6.1;2.3;;;;;;;21.47;54.78418;962.5187;;;;
2019/08/01 09:48:28;;;;;;;10.6;2.3;;;;;;;21.41;53.84375;962.5513;;;;
2019/08/01 09:50:53;;;;;;;7.5;2.7;;;;;;;21.45;54.08398;962.5381;;;;
2019/08/01 09:53:18;;;;;;;6.8;2.4;;;;;;;21.58;54.9502;962.4943;;;;
2019/08/01 09:55:44;;;;;;;6.7;2.4;;;;;;;21.8;51.23535;962.4498;;;;
2019/08/01 09:58:09;;;;;;;6.1;2.1;;;;;;;21.89;54.30469;962.4189;;;;
2019/08/01 10:00:34;;;;;;;6.4;2.4;;;;;;;21.89;51.68262;962.4396;;;;
2019/08/01 10:02:59;;;;;;;7.3;2.6;;;;;;;21.73;53.28027;962.4117;;;;
2019/08/01 10:05:25;;;;;;;5.8;2.1;;;;;;;22.04;50.17578;962.3494;;;;
2019/08/01 10:07:50;;;;;;;8;2.7;;;;;;;22.14;50.68262;962.3265;;;;
2019/08/01 10:10:15;;;;;;;5.2;2.4;;;;;;;22.03;50.9541;962.3466;;;;
2019/08/01 10:12:40;;;;;;;5.6;2.1;;;;;;;22.03;51.50879;962.2802;;;;
2019/08/01 10:15:05;;;;;;;9.1;2.6;;;;;;;22.02;51.27148;962.2603;;;;
2019/08/01 10:17:30;;;;;;;6.3;2.4;;;;;;;22.08;51.08984;962.21;;;;
2019/08/01 10:19:56;;;;;;;7.1;2.4;;;;;;;21.97;52.38867;962.2198;;;;
2019/08/01 10:22:21;;;;;;;6.6;2.3;;;;;;;22.09;51.04395;962.1766;;;;
2019/08/01 10:24:46;;;;;;;7.2;2.4;;;;;;;22.06;51.72559;962.1489;;;;
2019/08/01 10:27:12;;;;;;;7.1;2.2;;;;;;;22.24;50.39941;962.0955;;;;
2019/08/01 10:29:37;;;;;;;6;2.4;;;;;;;22.46;49.70313;962.0919;;;;
2019/08/01 10:32:02;;;;;;;5.7;1.9;;;;;;;22.45;49.70215;962.0946;;;;
2019/08/01 10:34:27;;;;;;;6;2.3;;;;;;;22.28;49.71777;962.0291;;;;
2019/08/01 10:36:52;;;;;;;8.6;2.7;;;;;;;22.34;50.74121;962.0094;;;;
2019/08/01 10:39:18;;;;;;;5.8;2.2;;;;;;;22.44;51.00098;961.9813;;;;
2019/08/01 10:41:43;;;;;;;6.1;2.5;;;;;;;22.49;48.77246;961.9235;;;;
2019/08/01 10:44:08;;;;;;;5.3;2.4;;;;;;;22.6;49.68262;961.9316;;;;
2019/08/01 10:46:33;;;;;;;4.5;2.2;;;;;;;22.54;49.84277;961.9431;;;;
2019/08/01 10:48:59;;;;;;;5.5;2.5;;;;;;;22.61;48.35938;961.9163;;;;
2019/08/01 10:51:24;;;;;;;5.2;2.3;;;;;;;22.83;49.70898;961.9469;;;;
2019/08/01 10:53:49;;;;;;;6.4;2.1;;;;;;;23.1;50.0459;961.9221;;;;
2019/08/01 10:56:15;;;;;;;7.9;2.6;;;;;;;23.34;48.48535;961.9695;;;;
2019/08/01 10:58:40;;;;;;;8.1;3.1;;;;;;;23.25;47.56445;961.9005;;;;
2019/08/01 11:01:05;;;;;;;6.4;2.8;;;;;;;23.29;48.72852;961.8903;;;;
2019/08/01 11:03:30;;;;;;;7.7;2.7;;;;;;;23.19;48.01953;961.8713;;;;
2019/08/01 11:05:55;;;;;;;7.8;3;;;;;;;23.3;47.94824;961.8956;;;;
2019/08/01 11:08:21;;;;;;;5.6;2.6;;;;;;;23.43;47.3584;961.8514;;;;
2019/08/01 11:10:46;;;;;;;6.9;2.7;;;;;;;23.3;47.1543;961.8314;;;;
2019/08/01 11:13:11;;;;;;;5.7;2.5;;;;;;;23.32;47.80762;961.802;;;;
2019/08/01 11:15:36;;;;;;;7.7;2.7;;;;;;;23.19;49.16895;961.7815;;;;
2019/08/01 11:18:01;;;;;;;4.7;2.5;;;;;;;23.24;49.7666;961.7202;;;;
2019/08/01 11:20:26;;;;;;;4.5;2.5;;;;;;;23.35;48.59375;961.6747;;;;
2019/08/01 11:22:52;;;;;;;6.2;2.8;;;;;;;23.36;49.08008;961.6526;;;;
2019/08/01 11:25:17;;;;;;;5.8;3;;;;;;;23.34;48.36816;961.6641;;;;
2019/08/01 11:27:42;;;;;;;6;2.5;;;;;;;23.25;49.30566;961.6643;;;;
2019/08/01 11:30:07;;;;;;;9;2.7;;;;;;;23.45;47.58594;961.6261;;;;
2019/08/01 11:32:32;;;;;;;6.5;2.7;;;;;;;23.5;48.77539;961.6572;;;;
2019/08/01 11:34:58;;;;;;;6.6;2.8;;;;;;;23.39;48.05273;961.6228;;;;
2019/08/01 11:37:23;;;;;;;8.3;2.8;;;;;;;23.27;48.49023;961.6104;;;;
2019/08/01 11:39:48;;;;;;;10.1;2.9;;;;;;;23.09;49.23926;961.6627;;;;
2019/08/01 11:42:14;;;;;;;6.4;2.7;;;;;;;23.11;47.57129;961.57;;;;
2019/08/01 11:44:39;;;;;;;5.9;2.6;;;;;;;23.24;49.57617;961.5613;;;;
2019/08/01 11:47:04;;;;;;;7.2;2.8;;;;;;;23.25;50.58496;961.5745;;;;
2019/08/01 11:49:29;;;;;;;5.9;2.3;;;;;;;23.35;47.98926;961.5042;;;;
2019/08/01 11:51:55;;;;;;;6.2;2.3;;;;;;;23.46;47.27832;961.4453;;;;
2019/08/01 11:54:20;;;;;;;5.2;2.4;;;;;;;23.5;48.88281;961.5114;;;;
2019/08/01 11:56:45;;;;;;;6.2;2.4;;;;;;;23.55;49.0791;961.4758;;;;
2019/08/01 11:59:10;;;;;;;5.6;2.5;;;;;;;23.5;50.03223;961.4891;;;;
2019/08/01 12:01:36;;;;;;;5.9;2.3;;;;;;;23.57;47.90625;961.4636;;;;
2019/08/01 12:04:01;;;;;;;7.4;2.5;;;;;;;23.7;48.41797;961.4871;;;;
2019/08/01 12:06:26;;;;;;;5;2.2;;;;;;;23.87;48.22363;961.461;;;;
2019/08/01 12:08:51;;;;;;;6;2.5;;;;;;;23.88;48.15234;961.4774;;;;
2019/08/01 12:11:17;;;;;;;4.9;2.3;;;;;;;23.86;47.69922;961.498;;;;
2019/08/01 12:13:42;;;;;;;6.7;2.6;;;;;;;23.7;46.40234;961.4453;;;;
2019/08/01 12:18:36;;;;;;;6.6;2.7;;;;;;;23.42;49.62012;961.4664;;;;
2019/08/01 12:20:57;;;;;;;5.7;2.7;;;;;;;23.32;49.45605;961.4623;;;;
2019/08/01 12:23:22;;;;;;;6.3;2.6;;;;;;;23.3;49.21582;961.4373;;;;
2019/08/01 12:25:47;;;;;;;5.7;2.8;;;;;;;23.17;48.00488;961.4669;;;;
2019/08/01 12:28:12;;;;;;;6;2.7;;;;;;;23.15;48.68945;961.5244;;;;
2019/08/01 12:30:37;;;;;;;5.5;2.7;;;;;;;23.09;48.63574;961.5162;;;;
2019/08/01 12:33:03;;;;;;;7.4;2.9;;;;;;;23.26;49.0332;961.5242;;;;
2019/08/01 12:35:28;;;;;;;7.9;2.8;;;;;;;23.41;49.44141;961.4899;;;;
2019/08/01 12:37:53;;;;;;;5.7;2.4;;;;;;;23.45;48.75879;961.5103;;;;
2019/08/01 12:40:18;;;;;;;10.4;2.7;;;;;;;23.42;48.83887;961.4712;;;;
2019/08/01 12:42:43;;;;;;;6.8;2.2;;;;;;;23.55;48.81738;961.5044;;;;
2019/08/01 12:45:08;;;;;;;8.7;2.7;;;;;;;23.83;47.18652;961.4306;;;;
2019/08/01 12:47:34;;;;;;;5.2;2.6;;;;;;;24.27;47.95703;961.3251;;;;
2019/08/01 12:49:59;;;;;;;6.9;2.6;;;;;;;24.51;46.98535;961.3396;;;;
2019/08/01 12:52:24;;;;;;;7.8;2.7;;;;;;;24.48;46.13965;961.2761;;;;
2019/08/01 12:54:49;;;;;;;6.3;2.5;;;;;;;24.27;47.89844;961.2762;;;;
2019/08/01 12:57:14;;;;;;;6.4;2.5;;;;;;;24.4;47.5918;961.2477;;;;
2019/08/01 12:59:40;;;;;;;5.4;2.4;;;;;;;24.34;48.39355;961.2128;;;;
2019/08/01 13:02:05;;;;;;;7.1;2.6;;;;;;;24.19;46.3584;961.1855;;;;
2019/08/01 13:04:30;;;;;;;7.1;2.6;;;;;;;23.8;48.7373;961.1323;;;;
2019/08/01 13:06:55;;;;;;;6.7;2.8;;;;;;;23.71;48.41895;961.133;;;;
2019/08/01 13:09:20;;;;;;;7.6;2.5;;;;;;;23.72;46.89063;961.0884;;;;
2019/08/01 13:11:46;;;;;;;8.6;2.3;;;;;;;23.96;47.68652;961.1052;;;;
2019/08/01 13:14:11;;;;;;;7.5;3.2;;;;;;;23.88;49.04199;961.0778;;;;
2019/08/01 13:16:36;;;;;;;8.6;2.6;;;;;;;24.2;48.94824;961.1584;;;;
2019/08/01 13:19:01;;;;;;;5.3;2.4;;;;;;;24.12;48.47559;961.0686;;;;
2019/08/01 13:21:26;;;;;;;6.5;2.5;;;;;;;24.13;47.59863;961.0147;;;;
2019/08/01 13:23:52;;;;;;;5.7;2.4;;;;;;;24;46.93262;961.0506;;;;
2019/08/01 13:26:17;;;;;;;6;2.4;;;;;;;24.01;46.26855;961.1218;;;;
2019/08/01 13:28:42;;;;;;;6.3;2.3;;;;;;;23.83;48.61035;961.0609;;;;
2019/08/01 13:31:07;;;;;;;5.3;2.1;;;;;;;23.84;49.43066;961.1262;;;;
2019/08/01 13:33:33;;;;;;;7.1;2.3;;;;;;;23.69;49.94727;961.153;;;;
2019/08/01 13:35:58;;;;;;;6;2.2;;;;;;;23.82;48.47852;961.1323;;;;
2019/08/01 13:38:23;;;;;;;5.5;2.2;;;;;;;24.08;47.49902;961.0857;;;;
2019/08/01 13:40:49;;;;;;;4.2;2.1;;;;;;;24.05;47.36426;961.0381;;;;
2019/08/01 13:43:14;;;;;;;6.4;2.1;;;;;;;24.01;47.71582;961.0795;;;;
2019/08/01 13:45:39;;;;;;;6.6;2.4;;;;;;;24.38;47.56641;961.0577;;;;
2019/08/01 13:48:04;;;;;;;5.2;1.9;;;;;;;24.63;46.47461;961.0472;;;;
2019/08/01 13:50:32;;;;;;;5.3;2.3;;;;;;;24.7;44.22559;961.0261;;;;
2019/08/01 13:52:58;;;;;;;4.5;2.1;;;;;;;24.95;45.43848;961.0126;;;;
2019/08/01 13:55:20;;;;;;;5.9;2.2;;;;;;;24.83;44.96289;961.021;;;;
2019/08/01 13:57:45;;;;;;;6.7;2.4;;;;;;;24.73;45.15527;960.9994;;;;
2019/08/01 14:00:10;;;;;;;5.7;2.1;;;;;;;24.73;45.41504;960.9863;;;;
2019/08/01 14:02:35;;;;;;;5.5;2.3;;;;;;;24.64;46.4873;960.9252;;;;
2019/08/01 14:05:01;;;;;;;8.2;2.2;;;;;;;24.66;44.95703;960.97;;;;
2019/08/01 14:07:26;;;;;;;5.4;2.2;;;;;;;24.6;45.16504;960.9924;;;;
2019/08/01 14:09:51;;;;;;;4.7;2.3;;;;;;;24.91;45.7666;960.8773;;;;
2019/08/01 14:12:16;;;;;;;5;2.1;;;;;;;25.3;45.30762;960.87;;;;
2019/08/01 14:14:41;;;;;;;5.3;2.1;;;;;;;25.83;42.63184;960.8745;;;;
2019/08/01 14:17:06;;;;;;;5.4;2.1;;;;;;;26.05;42.16504;960.7953;;;;
2019/08/01 14:19:31;;;;;;;4.6;2.4;;;;;;;26;42.54199;960.704;;;;
2019/08/01 14:21:57;;;;;;;6.1;2.2;;;;;;;25.66;44.20117;960.7755;;;;
2019/08/01 14:24:22;;;;;;;5.7;2.5;;;;;;;25.27;43.59082;960.8455;;;;
2019/08/01 14:26:47;;;;;;;5.5;2;;;;;;;25.1;42.84863;960.8304;;;;
2019/08/01 14:29:13;;;;;;;3.9;2;;;;;;;25.23;45.00293;960.8051;;;;
2019/08/01 14:31:38;;;;;;;5.8;2.1;;;;;;;25.5;42.70898;960.785;;;;
2019/08/01 14:34:03;;;;;;;4.5;2.2;;;;;;;25.81;41.65332;960.7356;;;;
2019/08/01 14:36:28;;;;;;;3.9;1.7;;;;;;;25.26;41.49512;960.7689;;;;
2019/08/01 14:38:54;;;;;;;4.3;2;;;;;;;25.34;43.40625;960.7034;;;;
2019/08/01 14:41:19;;;;;;;5;1.9;;;;;;;25.81;42.46387;960.7271;;;;
2019/08/01 14:43:44;;;;;;;5.5;2;;;;;;;25.99;41.27637;960.7152;;;;
2019/08/01 14:46:09;;;;;;;6.5;2.2;;;;;;;26.21;44.46875;960.7252;;;;
2019/08/01 14:48:34;;;;;;;6.1;2.2;;;;;;;26.57;40.53027;960.6552;;;;
2019/08/01 14:50:59;;;;;;;3.3;2;;;;;;;26.85;39.00293;960.6453;;;;
2019/08/01 14:53:25;;;;;;;6.5;2.2;;;;;;;26.77;40.41699;960.5969;;;;
2019/08/01 14:55:50;;;;;;;5.4;2.1;;;;;;;27.06;38.90234;960.5833;;;;
2019/08/01 14:58:15;;;;;;;6;2.1;;;;;;;26.83;38.87012;960.5845;;;;
2019/08/01 15:00:41;;;;;;;4.6;2.1;;;;;;;27.53;39.97168;960.6222;;;;
2019/08/01 15:03:06;;;;;;;8.1;6;;;;;;;27.9;38.17285;960.6494;;;;
2019/08/01 15:05:31;;;;;;;4.3;1.9;;;;;;;27.98;36.61133;960.618;;;;
2019/08/01 15:07:56;;;;;;;5;2;;;;;;;26.89;36.68945;960.5377;;;;
2019/08/01 15:10:22;;;;;;;5.5;2.4;;;;;;;27.11;39.49219;960.5204;;;;
2019/08/01 15:12:47;;;;;;;5.7;2.4;;;;;;;27.19;37.13281;960.4977;;;;
2019/08/01 15:15:12;;;;;;;3.4;2;;;;;;;27.48;40.22949;960.4084;;;;
2019/08/01 15:17:38;;;;;;;3.6;1.8;;;;;;;27.42;37.69043;960.4191;;;;
2019/08/01 15:20:03;;;;;;;4.8;2;;;;;;;26.62;37.27734;960.4304;;;;
2019/08/01 15:22:28;;;;;;;4;1.7;;;;;;;27.07;36.28613;960.4049;;;;
2019/08/01 15:24:54;;;;;;;4.6;2.1;;;;;;;27.19;38.32813;960.2975;;;;
2019/08/01 15:27:19;;;;;;;4.7;2;;;;;;;26.9;38.14844;960.338;;;;
2019/08/01 15:29:44;;;;;;;4.8;2.1;;;;;;;26.86;35.81641;960.3262;;;;
2019/08/01 15:32:09;;;;;;;3.6;2.2;;;;;;;26.75;38.33887;960.3167;;;;